sensor_id;sensor_type;location;lat;lon;timestamp;P1;durP1;ratioP1;P2;durP2;ratioP2
52320;SDS011;38261;54.090;13.382;2023-05-07T00:00:15;16.27;;;3.80;;
52320;SDS011;38261;54.090;13.382;2023-05-07T00:01:40;11.03;;;3.67;;
52320;SDS011;38261;54.090;13.382;2023-05-07T00:03:02;5.40;;;3.50;;
52320;SDS011;38261;54.090;13.382;2023-05-07T00:04:24;6.07;;;3.47;;
52320;SDS011;38261;54.090;13.382;2023-05-07T00:05:47;11.03;;;4.03;;
52320;SDS011;38261;54.090;13.382;2023-05-07T00:07:09;12.57;;;3.50;;
52320;SDS011;38261;54.090;13.382;2023-05-07T00:08:32;9.20;;;3.53;;
52320;SDS011;38261;54.090;13.382;2023-05-07T00:09:54;9.80;;;3.90;;
52320;SDS011;38261;54.090;13.382;2023-05-07T00:11:16;6.57;;;4.00;;
52320;SDS011;38261;54.090;13.382;2023-05-07T00:12:38;10.90;;;4.10;;
52320;SDS011;38261;54.090;13.382;2023-05-07T00:14:01;10.67;;;3.60;;
52320;SDS011;38261;54.090;13.382;2023-05-07T00:15:23;10.70;;;3.47;;
52320;SDS011;38261;54.090;13.382;2023-05-07T00:16:45;4.40;;;3.23;;
52320;SDS011;38261;54.090;13.382;2023-05-07T00:18:07;11.93;;;3.77;;
52320;SDS011;38261;54.090;13.382;2023-05-07T00:19:30;5.10;;;3.58;;
52320;SDS011;38261;54.090;13.382;2023-05-07T00:20:52;6.17;;;3.47;;
52320;SDS011;38261;54.090;13.382;2023-05-07T00:22:14;7.07;;;3.57;;
52320;SDS011;38261;54.090;13.382;2023-05-07T00:23:36;10.83;;;3.87;;
52320;SDS011;38261;54.090;13.382;2023-05-07T00:24:59;8.10;;;3.53;;
52320;SDS011;38261;54.090;13.382;2023-05-07T00:26:21;13.68;;;3.75;;
52320;SDS011;38261;54.090;13.382;2023-05-07T00:27:43;7.40;;;3.60;;
52320;SDS011;38261;54.090;13.382;2023-05-07T00:29:05;7.30;;;3.57;;
52320;SDS011;38261;54.090;13.382;2023-05-07T00:30:27;9.50;;;3.70;;
52320;SDS011;38261;54.090;13.382;2023-05-07T00:31:50;8.70;;;3.47;;
52320;SDS011;38261;54.090;13.382;2023-05-07T00:33:12;6.47;;;3.87;;
52320;SDS011;38261;54.090;13.382;2023-05-07T00:34:34;12.47;;;4.43;;
52320;SDS011;38261;54.090;13.382;2023-05-07T00:35:57;12.17;;;4.13;;
52320;SDS011;38261;54.090;13.382;2023-05-07T00:37:19;11.83;;;4.33;;
52320;SDS011;38261;54.090;13.382;2023-05-07T00:38:41;8.23;;;4.07;;
52320;SDS011;38261;54.090;13.382;2023-05-07T00:40:03;9.13;;;4.13;;
52320;SDS011;38261;54.090;13.382;2023-05-07T00:41:29;13.03;;;4.70;;
52320;SDS011;38261;54.090;13.382;2023-05-07T00:42:52;8.03;;;3.67;;
52320;SDS011;38261;54.090;13.382;2023-05-07T00:44:18;9.37;;;4.20;;
52320;SDS011;38261;54.090;13.382;2023-05-07T00:45:40;7.27;;;4.07;;
52320;SDS011;38261;54.090;13.382;2023-05-07T00:47:02;8.93;;;3.90;;
52320;SDS011;38261;54.090;13.382;2023-05-07T00:48:25;10.83;;;3.90;;
52320;SDS011;38261;54.090;13.382;2023-05-07T00:49:48;7.83;;;3.97;;
52320;SDS011;38261;54.090;13.382;2023-05-07T00:51:10;7.97;;;3.33;;
52320;SDS011;38261;54.090;13.382;2023-05-07T00:52:32;6.50;;;3.57;;
52320;SDS011;38261;54.090;13.382;2023-05-07T00:53:55;6.87;;;3.37;;
52320;SDS011;38261;54.090;13.382;2023-05-07T00:55:17;11.80;;;3.53;;
52320;SDS011;38261;54.090;13.382;2023-05-07T00:56:39;7.70;;;3.80;;
52320;SDS011;38261;54.090;13.382;2023-05-07T00:58:02;8.90;;;3.70;;
52320;SDS011;38261;54.090;13.382;2023-05-07T00:59:24;8.10;;;3.83;;
52320;SDS011;38261;54.090;13.382;2023-05-07T01:00:46;8.60;;;3.90;;
52320;SDS011;38261;54.090;13.382;2023-05-07T01:02:08;10.67;;;3.60;;
52320;SDS011;38261;54.090;13.382;2023-05-07T01:03:31;9.67;;;3.50;;
52320;SDS011;38261;54.090;13.382;2023-05-07T01:04:54;15.47;;;3.80;;
52320;SDS011;38261;54.090;13.382;2023-05-07T01:06:17;11.43;;;4.10;;
52320;SDS011;38261;54.090;13.382;2023-05-07T01:07:40;9.80;;;3.67;;
52320;SDS011;38261;54.090;13.382;2023-05-07T01:09:03;11.40;;;4.40;;
52320;SDS011;38261;54.090;13.382;2023-05-07T01:10:26;8.63;;;3.10;;
52320;SDS011;38261;54.090;13.382;2023-05-07T01:11:49;12.33;;;3.90;;
52320;SDS011;38261;54.090;13.382;2023-05-07T01:13:13;9.83;;;3.47;;
52320;SDS011;38261;54.090;13.382;2023-05-07T01:14:36;8.60;;;3.40;;
52320;SDS011;38261;54.090;13.382;2023-05-07T01:15:58;11.07;;;3.27;;
52320;SDS011;38261;54.090;13.382;2023-05-07T01:17:20;8.23;;;3.40;;
52320;SDS011;38261;54.090;13.382;2023-05-07T01:18:43;8.23;;;3.40;;
52320;SDS011;38261;54.090;13.382;2023-05-07T01:20:06;11.40;;;3.50;;
52320;SDS011;38261;54.090;13.382;2023-05-07T01:21:29;9.17;;;3.70;;
52320;SDS011;38261;54.090;13.382;2023-05-07T01:22:55;8.63;;;3.97;;
52320;SDS011;38261;54.090;13.382;2023-05-07T01:24:19;8.87;;;3.90;;
52320;SDS011;38261;54.090;13.382;2023-05-07T01:25:41;6.73;;;3.23;;
52320;SDS011;38261;54.090;13.382;2023-05-07T01:27:03;5.90;;;3.43;;
52320;SDS011;38261;54.090;13.382;2023-05-07T01:28:25;8.03;;;3.47;;
52320;SDS011;38261;54.090;13.382;2023-05-07T01:29:48;5.07;;;3.30;;
52320;SDS011;38261;54.090;13.382;2023-05-07T01:31:10;9.77;;;3.80;;
52320;SDS011;38261;54.090;13.382;2023-05-07T01:32:40;6.40;;;3.17;;
52320;SDS011;38261;54.090;13.382;2023-05-07T01:34:11;17.23;;;3.80;;
52320;SDS011;38261;54.090;13.382;2023-05-07T01:35:37;9.93;;;3.00;;
52320;SDS011;38261;54.090;13.382;2023-05-07T01:37:01;7.20;;;3.90;;
52320;SDS011;38261;54.090;13.382;2023-05-07T01:38:24;8.77;;;3.70;;
52320;SDS011;38261;54.090;13.382;2023-05-07T01:39:46;6.73;;;3.60;;
52320;SDS011;38261;54.090;13.382;2023-05-07T01:41:09;12.87;;;3.50;;
52320;SDS011;38261;54.090;13.382;2023-05-07T01:42:33;6.53;;;3.53;;
52320;SDS011;38261;54.090;13.382;2023-05-07T01:43:55;8.73;;;3.83;;
52320;SDS011;38261;54.090;13.382;2023-05-07T01:45:19;6.40;;;2.60;;
52320;SDS011;38261;54.090;13.382;2023-05-07T01:46:42;5.80;;;3.50;;
52320;SDS011;38261;54.090;13.382;2023-05-07T01:48:04;14.83;;;3.67;;
52320;SDS011;38261;54.090;13.382;2023-05-07T01:49:28;7.60;;;3.20;;
52320;SDS011;38261;54.090;13.382;2023-05-07T01:50:50;5.33;;;3.60;;
52320;SDS011;38261;54.090;13.382;2023-05-07T01:52:13;8.13;;;4.03;;
52320;SDS011;38261;54.090;13.382;2023-05-07T01:53:36;7.57;;;3.20;;
52320;SDS011;38261;54.090;13.382;2023-05-07T01:54:59;11.23;;;3.57;;
52320;SDS011;38261;54.090;13.382;2023-05-07T01:56:21;8.87;;;3.50;;
52320;SDS011;38261;54.090;13.382;2023-05-07T01:57:43;4.43;;;3.40;;
52320;SDS011;38261;54.090;13.382;2023-05-07T01:59:05;7.90;;;3.30;;
52320;SDS011;38261;54.090;13.382;2023-05-07T02:00:27;8.07;;;4.10;;
52320;SDS011;38261;54.090;13.382;2023-05-07T02:01:50;7.47;;;3.57;;
52320;SDS011;38261;54.090;13.382;2023-05-07T02:03:13;9.47;;;3.83;;
52320;SDS011;38261;54.090;13.382;2023-05-07T02:04:35;6.77;;;2.90;;
52320;SDS011;38261;54.090;13.382;2023-05-07T02:05:58;5.73;;;3.70;;
52320;SDS011;38261;54.090;13.382;2023-05-07T02:07:20;12.87;;;3.17;;
52320;SDS011;38261;54.090;13.382;2023-05-07T02:08:42;12.90;;;3.63;;
52320;SDS011;38261;54.090;13.382;2023-05-07T02:10:04;7.90;;;3.13;;
52320;SDS011;38261;54.090;13.382;2023-05-07T02:11:27;9.40;;;3.47;;
52320;SDS011;38261;54.090;13.382;2023-05-07T02:12:49;5.80;;;3.50;;
52320;SDS011;38261;54.090;13.382;2023-05-07T02:14:11;5.73;;;3.70;;
52320;SDS011;38261;54.090;13.382;2023-05-07T02:15:33;13.63;;;3.47;;
52320;SDS011;38261;54.090;13.382;2023-05-07T02:16:56;8.17;;;3.37;;
52320;SDS011;38261;54.090;13.382;2023-05-07T02:18:18;9.07;;;3.83;;
52320;SDS011;38261;54.090;13.382;2023-05-07T02:19:40;9.80;;;3.80;;
52320;SDS011;38261;54.090;13.382;2023-05-07T02:21:02;7.60;;;3.63;;
52320;SDS011;38261;54.090;13.382;2023-05-07T02:22:24;14.23;;;4.40;;
52320;SDS011;38261;54.090;13.382;2023-05-07T02:23:49;6.83;;;3.50;;
52320;SDS011;38261;54.090;13.382;2023-05-07T02:25:11;7.40;;;3.87;;
52320;SDS011;38261;54.090;13.382;2023-05-07T02:26:34;13.50;;;3.70;;
52320;SDS011;38261;54.090;13.382;2023-05-07T02:27:56;10.20;;;3.23;;
52320;SDS011;38261;54.090;13.382;2023-05-07T02:29:18;10.57;;;3.20;;
52320;SDS011;38261;54.090;13.382;2023-05-07T02:30:41;8.67;;;4.20;;
52320;SDS011;38261;54.090;13.382;2023-05-07T02:32:03;9.90;;;3.60;;
52320;SDS011;38261;54.090;13.382;2023-05-07T02:33:25;9.40;;;3.67;;
52320;SDS011;38261;54.090;13.382;2023-05-07T02:34:49;8.40;;;3.60;;
52320;SDS011;38261;54.090;13.382;2023-05-07T02:36:12;9.80;;;4.30;;
52320;SDS011;38261;54.090;13.382;2023-05-07T02:37:34;10.13;;;3.80;;
52320;SDS011;38261;54.090;13.382;2023-05-07T02:38:56;14.77;;;4.97;;
52320;SDS011;38261;54.090;13.382;2023-05-07T02:40:18;9.13;;;3.80;;
52320;SDS011;38261;54.090;13.382;2023-05-07T02:41:41;11.37;;;3.67;;
52320;SDS011;38261;54.090;13.382;2023-05-07T02:43:03;8.30;;;3.80;;
52320;SDS011;38261;54.090;13.382;2023-05-07T02:44:25;12.27;;;3.80;;
52320;SDS011;38261;54.090;13.382;2023-05-07T02:45:47;6.30;;;3.57;;
52320;SDS011;38261;54.090;13.382;2023-05-07T02:47:09;9.40;;;3.80;;
52320;SDS011;38261;54.090;13.382;2023-05-07T02:48:31;9.37;;;4.13;;
52320;SDS011;38261;54.090;13.382;2023-05-07T02:49:54;12.70;;;3.57;;
52320;SDS011;38261;54.090;13.382;2023-05-07T02:51:20;10.10;;;4.10;;
52320;SDS011;38261;54.090;13.382;2023-05-07T02:52:46;10.87;;;3.77;;
52320;SDS011;38261;54.090;13.382;2023-05-07T02:54:09;7.93;;;3.33;;
52320;SDS011;38261;54.090;13.382;2023-05-07T02:55:31;16.00;;;4.77;;
52320;SDS011;38261;54.090;13.382;2023-05-07T02:56:53;8.80;;;3.80;;
52320;SDS011;38261;54.090;13.382;2023-05-07T02:58:15;8.33;;;4.10;;
52320;SDS011;38261;54.090;13.382;2023-05-07T02:59:37;8.40;;;4.80;;
52320;SDS011;38261;54.090;13.382;2023-05-07T03:00:59;12.57;;;4.73;;
52320;SDS011;38261;54.090;13.382;2023-05-07T03:02:21;8.63;;;4.30;;
52320;SDS011;38261;54.090;13.382;2023-05-07T03:03:44;12.13;;;3.90;;
52320;SDS011;38261;54.090;13.382;2023-05-07T03:05:06;9.17;;;4.03;;
52320;SDS011;38261;54.090;13.382;2023-05-07T03:06:28;13.33;;;4.53;;
52320;SDS011;38261;54.090;13.382;2023-05-07T03:07:50;9.53;;;4.00;;
52320;SDS011;38261;54.090;13.382;2023-05-07T03:09:12;7.70;;;3.67;;
52320;SDS011;38261;54.090;13.382;2023-05-07T03:10:35;6.87;;;3.60;;
52320;SDS011;38261;54.090;13.382;2023-05-07T03:11:58;8.70;;;3.60;;
52320;SDS011;38261;54.090;13.382;2023-05-07T03:13:20;9.77;;;3.70;;
52320;SDS011;38261;54.090;13.382;2023-05-07T03:14:43;7.20;;;3.80;;
52320;SDS011;38261;54.090;13.382;2023-05-07T03:16:05;8.80;;;4.50;;
52320;SDS011;38261;54.090;13.382;2023-05-07T03:17:27;12.50;;;4.10;;
52320;SDS011;38261;54.090;13.382;2023-05-07T03:18:49;19.23;;;4.53;;
52320;SDS011;38261;54.090;13.382;2023-05-07T03:20:11;9.63;;;4.00;;
52320;SDS011;38261;54.090;13.382;2023-05-07T03:21:34;9.23;;;4.07;;
52320;SDS011;38261;54.090;13.382;2023-05-07T03:22:57;8.07;;;4.20;;
52320;SDS011;38261;54.090;13.382;2023-05-07T03:24:19;11.03;;;4.73;;
52320;SDS011;38261;54.090;13.382;2023-05-07T03:25:41;7.53;;;4.50;;
52320;SDS011;38261;54.090;13.382;2023-05-07T03:27:03;10.93;;;4.90;;
52320;SDS011;38261;54.090;13.382;2023-05-07T03:28:25;15.47;;;4.90;;
52320;SDS011;38261;54.090;13.382;2023-05-07T03:29:47;12.13;;;4.57;;
52320;SDS011;38261;54.090;13.382;2023-05-07T03:31:10;16.47;;;4.60;;
52320;SDS011;38261;54.090;13.382;2023-05-07T03:32:32;13.97;;;5.00;;
52320;SDS011;38261;54.090;13.382;2023-05-07T03:33:55;8.00;;;3.90;;
52320;SDS011;38261;54.090;13.382;2023-05-07T03:35:18;11.67;;;4.50;;
52320;SDS011;38261;54.090;13.382;2023-05-07T03:36:40;8.43;;;3.87;;
52320;SDS011;38261;54.090;13.382;2023-05-07T03:38:02;13.77;;;4.93;;
52320;SDS011;38261;54.090;13.382;2023-05-07T03:39:24;11.53;;;3.87;;
52320;SDS011;38261;54.090;13.382;2023-05-07T03:40:46;7.70;;;3.60;;
52320;SDS011;38261;54.090;13.382;2023-05-07T03:42:08;9.47;;;4.57;;
52320;SDS011;38261;54.090;13.382;2023-05-07T03:43:30;7.50;;;4.40;;
52320;SDS011;38261;54.090;13.382;2023-05-07T03:44:52;7.50;;;4.57;;
52320;SDS011;38261;54.090;13.382;2023-05-07T03:46:14;11.70;;;4.43;;
52320;SDS011;38261;54.090;13.382;2023-05-07T03:47:37;10.50;;;4.40;;
52320;SDS011;38261;54.090;13.382;2023-05-07T03:48:59;8.40;;;3.87;;
52320;SDS011;38261;54.090;13.382;2023-05-07T03:50:21;16.07;;;4.17;;
52320;SDS011;38261;54.090;13.382;2023-05-07T03:51:43;13.43;;;5.00;;
52320;SDS011;38261;54.090;13.382;2023-05-07T03:53:05;12.17;;;5.10;;
52320;SDS011;38261;54.090;13.382;2023-05-07T03:54:27;10.00;;;4.87;;
52320;SDS011;38261;54.090;13.382;2023-05-07T03:55:49;13.53;;;4.27;;
52320;SDS011;38261;54.090;13.382;2023-05-07T03:57:12;13.17;;;4.67;;
52320;SDS011;38261;54.090;13.382;2023-05-07T03:58:34;12.03;;;5.30;;
52320;SDS011;38261;54.090;13.382;2023-05-07T03:59:56;12.30;;;4.73;;
52320;SDS011;38261;54.090;13.382;2023-05-07T04:01:18;7.33;;;3.93;;
52320;SDS011;38261;54.090;13.382;2023-05-07T04:02:41;13.07;;;5.20;;
52320;SDS011;38261;54.090;13.382;2023-05-07T04:04:03;10.63;;;4.90;;
52320;SDS011;38261;54.090;13.382;2023-05-07T04:05:26;17.60;;;4.63;;
52320;SDS011;38261;54.090;13.382;2023-05-07T04:06:48;12.10;;;4.53;;
52320;SDS011;38261;54.090;13.382;2023-05-07T04:08:10;14.17;;;7.00;;
52320;SDS011;38261;54.090;13.382;2023-05-07T04:09:32;15.87;;;8.00;;
52320;SDS011;38261;54.090;13.382;2023-05-07T04:10:56;9.60;;;5.30;;
52320;SDS011;38261;54.090;13.382;2023-05-07T04:12:19;11.10;;;5.60;;
52320;SDS011;38261;54.090;13.382;2023-05-07T04:13:41;8.37;;;5.27;;
52320;SDS011;38261;54.090;13.382;2023-05-07T04:15:03;19.17;;;7.60;;
52320;SDS011;38261;54.090;13.382;2023-05-07T04:16:26;8.53;;;4.00;;
52320;SDS011;38261;54.090;13.382;2023-05-07T04:17:48;6.70;;;5.03;;
52320;SDS011;38261;54.090;13.382;2023-05-07T04:19:10;8.90;;;4.80;;
52320;SDS011;38261;54.090;13.382;2023-05-07T04:20:33;7.00;;;4.30;;
52320;SDS011;38261;54.090;13.382;2023-05-07T04:21:57;7.67;;;4.40;;
52320;SDS011;38261;54.090;13.382;2023-05-07T04:23:19;7.80;;;4.37;;
52320;SDS011;38261;54.090;13.382;2023-05-07T04:24:42;9.50;;;4.17;;
52320;SDS011;38261;54.090;13.382;2023-05-07T04:26:04;9.93;;;4.47;;
52320;SDS011;38261;54.090;13.382;2023-05-07T04:27:26;6.77;;;4.10;;
52320;SDS011;38261;54.090;13.382;2023-05-07T04:28:49;11.53;;;4.37;;
52320;SDS011;38261;54.090;13.382;2023-05-07T04:30:12;7.70;;;4.10;;
52320;SDS011;38261;54.090;13.382;2023-05-07T04:31:35;11.10;;;4.60;;
52320;SDS011;38261;54.090;13.382;2023-05-07T04:32:57;13.97;;;4.40;;
52320;SDS011;38261;54.090;13.382;2023-05-07T04:34:19;5.87;;;3.70;;
52320;SDS011;38261;54.090;13.382;2023-05-07T04:35:42;7.63;;;4.23;;
52320;SDS011;38261;54.090;13.382;2023-05-07T04:37:04;9.77;;;4.17;;
52320;SDS011;38261;54.090;13.382;2023-05-07T04:38:27;7.00;;;3.97;;
52320;SDS011;38261;54.090;13.382;2023-05-07T04:39:49;9.37;;;4.17;;
52320;SDS011;38261;54.090;13.382;2023-05-07T04:41:12;9.07;;;4.10;;
52320;SDS011;38261;54.090;13.382;2023-05-07T04:42:34;10.20;;;4.47;;
52320;SDS011;38261;54.090;13.382;2023-05-07T04:43:57;9.23;;;3.87;;
52320;SDS011;38261;54.090;13.382;2023-05-07T04:45:20;5.60;;;3.60;;
52320;SDS011;38261;54.090;13.382;2023-05-07T04:46:42;6.97;;;4.23;;
52320;SDS011;38261;54.090;13.382;2023-05-07T04:48:04;6.90;;;4.07;;
52320;SDS011;38261;54.090;13.382;2023-05-07T04:49:27;6.57;;;3.87;;
52320;SDS011;38261;54.090;13.382;2023-05-07T04:50:49;7.43;;;3.93;;
52320;SDS011;38261;54.090;13.382;2023-05-07T04:52:12;7.00;;;3.67;;
52320;SDS011;38261;54.090;13.382;2023-05-07T04:53:34;7.93;;;4.03;;
52320;SDS011;38261;54.090;13.382;2023-05-07T04:54:58;7.57;;;4.33;;
52320;SDS011;38261;54.090;13.382;2023-05-07T04:56:21;7.70;;;3.70;;
52320;SDS011;38261;54.090;13.382;2023-05-07T04:57:43;9.80;;;3.57;;
52320;SDS011;38261;54.090;13.382;2023-05-07T04:59:05;8.73;;;3.77;;
52320;SDS011;38261;54.090;13.382;2023-05-07T05:00:27;9.40;;;4.10;;
52320;SDS011;38261;54.090;13.382;2023-05-07T05:01:49;5.50;;;3.77;;
52320;SDS011;38261;54.090;13.382;2023-05-07T05:03:12;8.83;;;4.23;;
52320;SDS011;38261;54.090;13.382;2023-05-07T05:04:34;5.23;;;4.20;;
52320;SDS011;38261;54.090;13.382;2023-05-07T05:05:56;9.17;;;4.40;;
52320;SDS011;38261;54.090;13.382;2023-05-07T05:07:20;10.50;;;4.07;;
52320;SDS011;38261;54.090;13.382;2023-05-07T05:08:43;7.23;;;4.23;;
52320;SDS011;38261;54.090;13.382;2023-05-07T05:10:05;7.03;;;3.87;;
52320;SDS011;38261;54.090;13.382;2023-05-07T05:11:28;7.83;;;4.47;;
52320;SDS011;38261;54.090;13.382;2023-05-07T05:12:50;6.80;;;3.50;;
52320;SDS011;38261;54.090;13.382;2023-05-07T05:14:12;7.57;;;4.77;;
52320;SDS011;38261;54.090;13.382;2023-05-07T05:15:34;12.00;;;5.03;;
52320;SDS011;38261;54.090;13.382;2023-05-07T05:16:56;7.67;;;4.33;;
52320;SDS011;38261;54.090;13.382;2023-05-07T05:18:18;7.20;;;4.80;;
52320;SDS011;38261;54.090;13.382;2023-05-07T05:19:41;10.57;;;4.43;;
52320;SDS011;38261;54.090;13.382;2023-05-07T05:21:03;9.37;;;4.90;;
52320;SDS011;38261;54.090;13.382;2023-05-07T05:22:26;5.50;;;4.37;;
52320;SDS011;38261;54.090;13.382;2023-05-07T05:23:48;11.00;;;4.67;;
52320;SDS011;38261;54.090;13.382;2023-05-07T05:25:10;7.57;;;4.57;;
52320;SDS011;38261;54.090;13.382;2023-05-07T05:26:32;7.33;;;4.43;;
52320;SDS011;38261;54.090;13.382;2023-05-07T05:27:54;10.63;;;5.20;;
52320;SDS011;38261;54.090;13.382;2023-05-07T05:29:16;9.10;;;5.10;;
52320;SDS011;38261;54.090;13.382;2023-05-07T05:30:38;18.70;;;5.30;;
52320;SDS011;38261;54.090;13.382;2023-05-07T05:32:01;7.10;;;5.00;;
52320;SDS011;38261;54.090;13.382;2023-05-07T05:33:23;8.70;;;4.90;;
52320;SDS011;38261;54.090;13.382;2023-05-07T05:34:45;12.47;;;4.60;;
52320;SDS011;38261;54.090;13.382;2023-05-07T05:36:10;9.43;;;4.60;;
52320;SDS011;38261;54.090;13.382;2023-05-07T05:37:34;8.63;;;4.87;;
52320;SDS011;38261;54.090;13.382;2023-05-07T05:38:56;8.23;;;4.57;;
52320;SDS011;38261;54.090;13.382;2023-05-07T05:40:18;11.27;;;4.80;;
52320;SDS011;38261;54.090;13.382;2023-05-07T05:41:41;10.00;;;5.00;;
52320;SDS011;38261;54.090;13.382;2023-05-07T05:43:03;7.30;;;4.60;;
52320;SDS011;38261;54.090;13.382;2023-05-07T05:44:25;6.97;;;4.47;;
52320;SDS011;38261;54.090;13.382;2023-05-07T05:45:47;8.50;;;4.40;;
52320;SDS011;38261;54.090;13.382;2023-05-07T05:47:09;8.43;;;4.50;;
52320;SDS011;38261;54.090;13.382;2023-05-07T05:48:31;10.07;;;4.77;;
52320;SDS011;38261;54.090;13.382;2023-05-07T05:49:53;8.03;;;4.07;;
52320;SDS011;38261;54.090;13.382;2023-05-07T05:51:15;14.40;;;4.37;;
52320;SDS011;38261;54.090;13.382;2023-05-07T05:52:37;9.37;;;4.10;;
52320;SDS011;38261;54.090;13.382;2023-05-07T05:53:59;5.43;;;3.60;;
52320;SDS011;38261;54.090;13.382;2023-05-07T05:55:22;6.23;;;4.00;;
52320;SDS011;38261;54.090;13.382;2023-05-07T05:56:44;8.53;;;4.10;;
52320;SDS011;38261;54.090;13.382;2023-05-07T05:58:06;6.20;;;3.90;;
52320;SDS011;38261;54.090;13.382;2023-05-07T05:59:29;7.13;;;3.97;;
52320;SDS011;38261;54.090;13.382;2023-05-07T06:00:51;6.27;;;4.23;;
52320;SDS011;38261;54.090;13.382;2023-05-07T06:02:14;11.63;;;4.23;;
52320;SDS011;38261;54.090;13.382;2023-05-07T06:03:37;11.70;;;3.80;;
52320;SDS011;38261;54.090;13.382;2023-05-07T06:04:59;7.40;;;4.17;;
52320;SDS011;38261;54.090;13.382;2023-05-07T06:06:21;10.00;;;4.53;;
52320;SDS011;38261;54.090;13.382;2023-05-07T06:07:43;9.77;;;3.93;;
52320;SDS011;38261;54.090;13.382;2023-05-07T06:09:06;5.37;;;3.60;;
52320;SDS011;38261;54.090;13.382;2023-05-07T06:10:28;7.63;;;4.77;;
52320;SDS011;38261;54.090;13.382;2023-05-07T06:11:51;8.37;;;5.00;;
52320;SDS011;38261;54.090;13.382;2023-05-07T06:13:13;6.83;;;4.20;;
52320;SDS011;38261;54.090;13.382;2023-05-07T06:14:35;9.43;;;4.30;;
52320;SDS011;38261;54.090;13.382;2023-05-07T06:15:58;5.43;;;4.17;;
52320;SDS011;38261;54.090;13.382;2023-05-07T06:17:20;9.83;;;4.43;;
52320;SDS011;38261;54.090;13.382;2023-05-07T06:18:42;8.23;;;3.93;;
52320;SDS011;38261;54.090;13.382;2023-05-07T06:20:06;6.10;;;4.07;;
52320;SDS011;38261;54.090;13.382;2023-05-07T06:21:29;7.00;;;4.17;;
52320;SDS011;38261;54.090;13.382;2023-05-07T06:22:52;6.10;;;4.27;;
52320;SDS011;38261;54.090;13.382;2023-05-07T06:24:14;8.77;;;4.20;;
52320;SDS011;38261;54.090;13.382;2023-05-07T06:25:36;6.40;;;4.13;;
52320;SDS011;38261;54.090;13.382;2023-05-07T06:26:58;8.53;;;4.30;;
52320;SDS011;38261;54.090;13.382;2023-05-07T06:28:21;11.10;;;4.43;;
52320;SDS011;38261;54.090;13.382;2023-05-07T06:29:43;5.60;;;4.37;;
52320;SDS011;38261;54.090;13.382;2023-05-07T06:31:12;7.67;;;4.90;;
52320;SDS011;38261;54.090;13.382;2023-05-07T06:32:35;9.63;;;4.23;;
52320;SDS011;38261;54.090;13.382;2023-05-07T06:33:58;5.57;;;4.23;;
52320;SDS011;38261;54.090;13.382;2023-05-07T06:35:20;5.70;;;4.00;;
52320;SDS011;38261;54.090;13.382;2023-05-07T06:36:42;7.00;;;3.83;;
52320;SDS011;38261;54.090;13.382;2023-05-07T06:38:04;7.70;;;4.60;;
52320;SDS011;38261;54.090;13.382;2023-05-07T06:39:27;9.43;;;4.63;;
52320;SDS011;38261;54.090;13.382;2023-05-07T06:40:49;6.60;;;4.03;;
52320;SDS011;38261;54.090;13.382;2023-05-07T06:42:11;7.00;;;4.27;;
52320;SDS011;38261;54.090;13.382;2023-05-07T06:43:33;8.80;;;4.50;;
52320;SDS011;38261;54.090;13.382;2023-05-07T06:44:55;9.03;;;4.70;;
52320;SDS011;38261;54.090;13.382;2023-05-07T06:46:17;7.17;;;3.53;;
52320;SDS011;38261;54.090;13.382;2023-05-07T06:47:39;9.83;;;3.60;;
52320;SDS011;38261;54.090;13.382;2023-05-07T06:49:01;9.30;;;4.67;;
52320;SDS011;38261;54.090;13.382;2023-05-07T06:50:24;6.40;;;3.40;;
52320;SDS011;38261;54.090;13.382;2023-05-07T06:51:46;9.03;;;3.27;;
52320;SDS011;38261;54.090;13.382;2023-05-07T06:53:08;5.53;;;3.57;;
52320;SDS011;38261;54.090;13.382;2023-05-07T06:54:30;4.50;;;3.30;;
52320;SDS011;38261;54.090;13.382;2023-05-07T06:55:52;5.40;;;3.83;;
52320;SDS011;38261;54.090;13.382;2023-05-07T06:57:14;8.73;;;3.67;;
52320;SDS011;38261;54.090;13.382;2023-05-07T06:58:37;5.10;;;3.70;;
52320;SDS011;38261;54.090;13.382;2023-05-07T06:59:59;7.53;;;3.93;;
52320;SDS011;38261;54.090;13.382;2023-05-07T07:01:21;6.63;;;3.13;;
52320;SDS011;38261;54.090;13.382;2023-05-07T07:02:43;5.80;;;3.20;;
52320;SDS011;38261;54.090;13.382;2023-05-07T07:04:06;5.53;;;3.50;;
52320;SDS011;38261;54.090;13.382;2023-05-07T07:05:28;3.70;;;2.63;;
52320;SDS011;38261;54.090;13.382;2023-05-07T07:06:51;8.93;;;2.90;;
52320;SDS011;38261;54.090;13.382;2023-05-07T07:08:15;4.63;;;3.53;;
52320;SDS011;38261;54.090;13.382;2023-05-07T07:09:39;9.60;;;4.50;;
52320;SDS011;38261;54.090;13.382;2023-05-07T07:11:01;5.20;;;2.83;;
52320;SDS011;38261;54.090;13.382;2023-05-07T07:12:23;6.63;;;3.40;;
52320;SDS011;38261;54.090;13.382;2023-05-07T07:13:47;5.80;;;3.33;;
52320;SDS011;38261;54.090;13.382;2023-05-07T07:15:09;8.30;;;3.13;;
52320;SDS011;38261;54.090;13.382;2023-05-07T07:16:32;7.27;;;3.20;;
52320;SDS011;38261;54.090;13.382;2023-05-07T07:17:54;4.97;;;3.13;;
52320;SDS011;38261;54.090;13.382;2023-05-07T07:19:16;6.40;;;3.30;;
52320;SDS011;38261;54.090;13.382;2023-05-07T07:20:38;5.23;;;2.90;;
52320;SDS011;38261;54.090;13.382;2023-05-07T07:22:00;5.10;;;2.80;;
52320;SDS011;38261;54.090;13.382;2023-05-07T07:23:23;4.67;;;3.37;;
52320;SDS011;38261;54.090;13.382;2023-05-07T07:24:45;6.43;;;4.00;;
52320;SDS011;38261;54.090;13.382;2023-05-07T07:26:07;5.40;;;3.33;;
52320;SDS011;38261;54.090;13.382;2023-05-07T07:27:29;7.00;;;3.10;;
52320;SDS011;38261;54.090;13.382;2023-05-07T07:28:51;5.00;;;3.57;;
52320;SDS011;38261;54.090;13.382;2023-05-07T07:30:14;4.40;;;3.10;;
52320;SDS011;38261;54.090;13.382;2023-05-07T07:31:36;8.43;;;3.30;;
52320;SDS011;38261;54.090;13.382;2023-05-07T07:32:58;7.87;;;3.80;;
52320;SDS011;38261;54.090;13.382;2023-05-07T07:34:24;4.77;;;3.13;;
52320;SDS011;38261;54.090;13.382;2023-05-07T07:35:46;5.23;;;3.37;;
52320;SDS011;38261;54.090;13.382;2023-05-07T07:37:08;6.93;;;3.40;;
52320;SDS011;38261;54.090;13.382;2023-05-07T07:38:30;4.97;;;3.20;;
52320;SDS011;38261;54.090;13.382;2023-05-07T07:39:52;10.83;;;3.63;;
52320;SDS011;38261;54.090;13.382;2023-05-07T07:41:15;9.80;;;3.37;;
52320;SDS011;38261;54.090;13.382;2023-05-07T07:42:37;5.70;;;3.40;;
52320;SDS011;38261;54.090;13.382;2023-05-07T07:43:59;4.07;;;3.20;;
52320;SDS011;38261;54.090;13.382;2023-05-07T07:45:21;7.73;;;3.57;;
52320;SDS011;38261;54.090;13.382;2023-05-07T07:46:43;7.03;;;3.67;;
52320;SDS011;38261;54.090;13.382;2023-05-07T07:48:05;3.27;;;2.97;;
52320;SDS011;38261;54.090;13.382;2023-05-07T07:49:28;7.83;;;3.37;;
52320;SDS011;38261;54.090;13.382;2023-05-07T07:50:50;3.90;;;3.07;;
52320;SDS011;38261;54.090;13.382;2023-05-07T07:52:15;5.57;;;3.13;;
52320;SDS011;38261;54.090;13.382;2023-05-07T07:53:37;5.20;;;3.27;;
52320;SDS011;38261;54.090;13.382;2023-05-07T07:54:59;4.83;;;2.97;;
52320;SDS011;38261;54.090;13.382;2023-05-07T07:56:21;4.87;;;3.50;;
52320;SDS011;38261;54.090;13.382;2023-05-07T07:57:43;8.43;;;3.50;;
52320;SDS011;38261;54.090;13.382;2023-05-07T07:59:06;6.53;;;3.57;;
52320;SDS011;38261;54.090;13.382;2023-05-07T08:00:28;6.30;;;4.13;;
52320;SDS011;38261;54.090;13.382;2023-05-07T08:01:50;8.20;;;3.97;;
52320;SDS011;38261;54.090;13.382;2023-05-07T08:03:16;12.03;;;4.10;;
52320;SDS011;38261;54.090;13.382;2023-05-07T08:04:38;6.23;;;3.87;;
52320;SDS011;38261;54.090;13.382;2023-05-07T08:06:01;9.20;;;4.00;;
52320;SDS011;38261;54.090;13.382;2023-05-07T08:07:23;5.73;;;3.67;;